sensor_id;sensor_type;location;lat;lon;timestamp;pressure;altitude;pressure_sealevel;temperature;humidity
42887;BME280;29032;56.028;92.904;2024-02-21T00:03:11;102544.00;;;-22.52;33.51
42887;BME280;29032;56.028;92.904;2024-02-21T00:08:14;102545.44;;;-22.34;33.28
42887;BME280;29032;56.028;92.904;2024-02-21T00:13:17;102545.31;;;-22.13;33.16
42887;BME280;29032;56.028;92.904;2024-02-21T00:18:19;102535.78;;;-22.03;33.01
42887;BME280;29032;56.028;92.904;2024-02-21T00:23:21;102533.38;;;-22.00;32.48
42887;BME280;29032;56.028;92.904;2024-02-21T00:28:25;102536.06;;;-21.95;32.50
42887;BME280;29032;56.028;92.904;2024-02-21T00:33:27;102531.56;;;-21.94;32.04
42887;BME280;29032;56.028;92.904;2024-02-21T00:38:29;102540.81;;;-22.02;32.34
42887;BME280;29032;56.028;92.904;2024-02-21T00:43:33;102527.94;;;-22.30;32.34
42887;BME280;29032;56.028;92.904;2024-02-21T00:48:35;102532.06;;;-22.55;33.01
42887;BME280;29032;56.028;92.904;2024-02-21T00:53:37;102516.09;;;-22.60;33.34
42887;BME280;29032;56.028;92.904;2024-02-21T00:58:41;102524.91;;;-22.49;32.98
42887;BME280;29032;56.028;92.904;2024-02-21T01:03:43;102526.53;;;-22.48;33.03
42887;BME280;29032;56.028;92.904;2024-02-21T01:08:46;102526.38;;;-22.21;32.93
42887;BME280;29032;56.028;92.904;2024-02-21T01:13:49;102530.50;;;-21.98;32.46
42887;BME280;29032;56.028;92.904;2024-02-21T01:18:52;102530.81;;;-21.85;32.26
42887;BME280;29032;56.028;92.904;2024-02-21T01:23:54;102539.34;;;-21.72;32.17
42887;BME280;29032;56.028;92.904;2024-02-21T01:28:57;102546.28;;;-21.56;32.26
42887;BME280;29032;56.028;92.904;2024-02-21T01:34:00;102535.69;;;-21.41;31.31
42887;BME280;29032;56.028;92.904;2024-02-21T01:39:02;102531.97;;;-21.50;31.52
42887;BME280;29032;56.028;92.904;2024-02-21T01:44:06;102545.75;;;-21.68;31.69
42887;BME280;29032;56.028;92.904;2024-02-21T01:49:08;102538.00;;;-21.80;32.98
42887;BME280;29032;56.028;92.904;2024-02-21T01:54:10;102547.72;;;-22.06;33.10
42887;BME280;29032;56.028;92.904;2024-02-21T01:59:15;102527.44;;;-22.22;32.73
42887;BME280;29032;56.028;92.904;2024-02-21T02:04:19;102533.91;;;-22.55;32.62
42887;BME280;29032;56.028;92.904;2024-02-21T02:09:22;102535.16;;;-22.63;33.76
42887;BME280;29032;56.028;92.904;2024-02-21T02:14:25;102522.94;;;-22.74;33.09
42887;BME280;29032;56.028;92.904;2024-02-21T02:19:27;102522.41;;;-22.66;33.48
42887;BME280;29032;56.028;92.904;2024-02-21T02:24:31;102509.69;;;-22.69;33.99
42887;BME280;29032;56.028;92.904;2024-02-21T02:34:53;102519.03;;;-22.09;33.61
42887;BME280;29032;56.028;92.904;2024-02-21T02:39:57;102509.06;;;-21.76;32.98
42887;BME280;29032;56.028;92.904;2024-02-21T02:44:59;102511.72;;;-21.51;32.74
42887;BME280;29032;56.028;92.904;2024-02-21T02:50:01;102499.56;;;-21.27;32.58
42887;BME280;29032;56.028;92.904;2024-02-21T02:55:06;102502.75;;;-21.04;32.67
42887;BME280;29032;56.028;92.904;2024-02-21T03:00:10;102495.84;;;-20.85;31.84
42887;BME280;29032;56.028;92.904;2024-02-21T03:05:31;102491.28;;;-20.64;32.59
42887;BME280;29032;56.028;92.904;2024-02-21T03:10:35;102479.25;;;-20.46;32.70
42887;BME280;29032;56.028;92.904;2024-02-21T03:15:37;102479.56;;;-20.73;32.97
42887;BME280;29032;56.028;92.904;2024-02-21T03:20:39;102468.19;;;-20.99;33.96
42887;BME280;29032;56.028;92.904;2024-02-21T03:25:43;102462.84;;;-20.84;33.96
42887;BME280;29032;56.028;92.904;2024-02-21T03:30:45;102451.06;;;-20.52;33.50
42887;BME280;29032;56.028;92.904;2024-02-21T03:35:47;102459.97;;;-20.18;33.59
42887;BME280;29032;56.028;92.904;2024-02-21T03:40:51;102447.03;;;-19.90;33.54
42887;BME280;29032;56.028;92.904;2024-02-21T03:45:53;102443.97;;;-19.68;32.91
42887;BME280;29032;56.028;92.904;2024-02-21T03:51:13;102436.25;;;-19.65;33.34
42887;BME280;29032;56.028;92.904;2024-02-21T03:56:17;102430.81;;;-19.54;32.58
42887;BME280;29032;56.028;92.904;2024-02-21T04:01:19;102417.97;;;-19.47;32.48
42887;BME280;29032;56.028;92.904;2024-02-21T04:06:21;102421.66;;;-19.38;32.63
42887;BME280;29032;56.028;92.904;2024-02-21T04:11:25;102402.91;;;-19.33;32.83
42887;BME280;29032;56.028;92.904;2024-02-21T04:16:27;102401.81;;;-19.27;32.20
42887;BME280;29032;56.028;92.904;2024-02-21T04:21:29;102405.72;;;-19.19;32.88
42887;BME280;29032;56.028;92.904;2024-02-21T04:26:33;102390.03;;;-19.21;31.44
42887;BME280;29032;56.028;92.904;2024-02-21T04:31:35;102382.16;;;-19.36;32.07
42887;BME280;29032;56.028;92.904;2024-02-21T04:36:37;102379.03;;;-19.19;32.25
42887;BME280;29032;56.028;92.904;2024-02-21T04:41:41;102367.66;;;-19.01;32.03
42887;BME280;29032;56.028;92.904;2024-02-21T04:46:43;102355.84;;;-18.95;32.18
42887;BME280;29032;56.028;92.904;2024-02-21T04:52:04;102360.22;;;-18.80;31.87
42887;BME280;29032;56.028;92.904;2024-02-21T04:57:08;102366.41;;;-18.61;32.11
42887;BME280;29032;56.028;92.904;2024-02-21T05:02:10;102351.09;;;-18.55;32.10
42887;BME280;29032;56.028;92.904;2024-02-21T05:07:12;102351.28;;;-18.47;31.72
42887;BME280;29032;56.028;92.904;2024-02-21T05:12:15;102318.81;;;-18.54;32.08
42887;BME280;29032;56.028;92.904;2024-02-21T05:17:18;102331.00;;;-18.29;31.88
42887;BME280;29032;56.028;92.904;2024-02-21T05:22:20;102330.94;;;-18.05;31.51
42887;BME280;29032;56.028;92.904;2024-02-21T05:27:24;102328.47;;;-17.82;31.89
42887;BME280;29032;56.028;92.904;2024-02-21T05:32:26;102310.13;;;-17.75;32.57
42887;BME280;29032;56.028;92.904;2024-02-21T05:37:28;102300.72;;;-17.86;32.63
42887;BME280;29032;56.028;92.904;2024-02-21T05:42:50;102294.41;;;-17.63;33.33
42887;BME280;29032;56.028;92.904;2024-02-21T05:47:52;102283.19;;;-17.32;32.58
42887;BME280;29032;56.028;92.904;2024-02-21T05:52:54;102274.06;;;-16.90;31.60
42887;BME280;29032;56.028;92.904;2024-02-21T05:57:58;102274.81;;;-16.48;32.76
42887;BME280;29032;56.028;92.904;2024-02-21T06:03:00;102268.03;;;-16.01;32.08
42887;BME280;29032;56.028;92.904;2024-02-21T06:08:03;102255.00;;;-15.94;32.43
42887;BME280;29032;56.028;92.904;2024-02-21T06:13:06;102247.16;;;-15.59;31.79
42887;BME280;29032;56.028;92.904;2024-02-21T06:18:09;102243.28;;;-15.76;31.84
42887;BME280;29032;56.028;92.904;2024-02-21T06:23:11;102229.03;;;-15.85;32.04
42887;BME280;29032;56.028;92.904;2024-02-21T06:28:15;102228.75;;;-16.06;32.27
42887;BME280;29032;56.028;92.904;2024-02-21T06:33:17;102218.81;;;-16.05;32.17
42887;BME280;29032;56.028;92.904;2024-02-21T06:38:19;102214.25;;;-15.74;31.84
42887;BME280;29032;56.028;92.904;2024-02-21T06:43:23;102210.38;;;-15.59;31.29
42887;BME280;29032;56.028;92.904;2024-02-21T06:48:25;102198.94;;;-15.73;30.98
42887;BME280;29032;56.028;92.904;2024-02-21T06:53:27;102195.97;;;-15.72;31.33
42887;BME280;29032;56.028;92.904;2024-02-21T06:58:30;102193.19;;;-15.89;32.56
42887;BME280;29032;56.028;92.904;2024-02-21T07:03:32;102177.38;;;-15.59;31.49
42887;BME280;29032;56.028;92.904;2024-02-21T07:08:35;102178.53;;;-14.95;31.72
42887;BME280;29032;56.028;92.904;2024-02-21T07:13:38;102166.41;;;-14.11;29.65
42887;BME280;29032;56.028;92.904;2024-02-21T07:18:40;102167.00;;;-13.96;29.31
42887;BME280;29032;56.028;92.904;2024-02-21T07:23:43;102154.00;;;-13.48;28.52
42887;BME280;29032;56.028;92.904;2024-02-21T07:28:46;102149.13;;;-13.54;28.83
42887;BME280;29032;56.028;92.904;2024-02-21T07:33:48;102145.69;;;-13.34;29.41
42887;BME280;29032;56.028;92.904;2024-02-21T07:38:50;102134.56;;;-12.61;28.23
42887;BME280;29032;56.028;92.904;2024-02-21T07:43:54;102121.34;;;-12.54;28.55
42887;BME280;29032;56.028;92.904;2024-02-21T07:48:56;102106.59;;;-12.23;27.91
42887;BME280;29032;56.028;92.904;2024-02-21T07:53:58;102102.75;;;-12.22;27.60
42887;BME280;29032;56.028;92.904;2024-02-21T07:59:02;102097.84;;;-12.08;26.93
42887;BME280;29032;56.028;92.904;2024-02-21T08:04:04;102086.94;;;-11.75;26.35
42887;BME280;29032;56.028;92.904;2024-02-21T08:09:06;102075.22;;;-11.79;26.56
42887;BME280;29032;56.028;92.904;2024-02-21T08:14:10;102078.53;;;-11.98;26.97
42887;BME280;29032;56.028;92.904;2024-02-21T08:19:12;102081.16;;;-12.22;26.71
42887;BME280;29032;56.028;92.904;2024-02-21T08:24:14;102073.91;;;-12.55;27.17
42887;BME280;29032;56.028;92.904;2024-02-21T08:29:18;102059.44;;;-12.83;27.70
42887;BME280;29032;56.028;92.904;2024-02-21T08:34:20;102061.72;;;-12.73;28.82
42887;BME280;29032;56.028;92.904;2024-02-21T08:39:22;102066.94;;;-12.89;28.25
42887;BME280;29032;56.028;92.904;2024-02-21T08:44:28;102051.84;;;-12.69;28.96
42887;BME280;29032;56.028;92.904;2024-02-21T08:49:31;102059.72;;;-11.94;27.71
42887;BME280;29032;56.028;92.904;2024-02-21T08:54:33;102050.03;;;-12.32;27.63
42887;BME280;29032;56.028;92.904;2024-02-21T08:59:37;102046.63;;;-13.28;29.42
42887;BME280;29032;56.028;92.904;2024-02-21T09:04:40;102042.03;;;-13.49;28.88
42887;BME280;29032;56.028;92.904;2024-02-21T09:09:42;102039.91;;;-13.64;29.35
42887;BME280;29032;56.028;92.904;2024-02-21T09:14:46;102042.78;;;-13.69;29.12
42887;BME280;29032;56.028;92.904;2024-02-21T09:19:48;102052.72;;;-13.90;29.48
42887;BME280;29032;56.028;92.904;2024-02-21T09:24:50;102060.25;;;-14.13;29.42
42887;BME280;29032;56.028;92.904;2024-02-21T09:29:54;102043.19;;;-14.55;29.59
42887;BME280;29032;56.028;92.904;2024-02-21T09:34:56;102047.00;;;-14.65;30.39
42887;BME280;29032;56.028;92.904;2024-02-21T09:39:58;102034.31;;;-14.47;30.32
42887;BME280;29032;56.028;92.904;2024-02-21T09:45:03;102029.75;;;-14.17;30.02
42887;BME280;29032;56.028;92.904;2024-02-21T09:50:07;102030.81;;;-14.10;29.94
42887;BME280;29032;56.028;92.904;2024-02-21T09:55:11;102020.78;;;-14.30;29.49
42887;BME280;29032;56.028;92.904;2024-02-21T10:00:16;102016.13;;;-14.50;30.90
42887;BME280;29032;56.028;92.904;2024-02-21T10:05:18;102016.16;;;-14.59;30.05
42887;BME280;29032;56.028;92.904;2024-02-21T10:10:20;102020.47;;;-14.84;31.20
42887;BME280;29032;56.028;92.904;2024-02-21T10:15:24;102006.91;;;-14.96;30.93
42887;BME280;29032;56.028;92.904;2024-02-21T10:20:27;102016.25;;;-14.94;30.77
42887;BME280;29032;56.028;92.904;2024-02-21T10:25:29;102004.34;;;-14.75;29.92
42887;BME280;29032;56.028;92.904;2024-02-21T10:30:33;101998.59;;;-14.56;30.64
42887;BME280;29032;56.028;92.904;2024-02-21T10:35:35;102003.63;;;-14.46;30.05
42887;BME280;29032;56.028;92.904;2024-02-21T10:40:37;101997.75;;;-14.40;28.57
42887;BME280;29032;56.028;92.904;2024-02-21T10:45:41;101996.63;;;-14.39;28.87
42887;BME280;29032;56.028;92.904;2024-02-21T10:50:53;102007.72;;;-14.40;29.12
42887;BME280;29032;56.028;92.904;2024-02-21T10:56:05;102001.13;;;-14.51;30.02
42887;BME280;29032;56.028;92.904;2024-02-21T11:01:10;102001.03;;;-14.90;28.46
42887;BME280;29032;56.028;92.904;2024-02-21T11:06:13;101996.81;;;-15.34;29.22
42887;BME280;29032;56.028;92.904;2024-02-21T11:11:16;101996.81;;;-15.69;30.03
42887;BME280;29032;56.028;92.904;2024-02-21T11:16:23;101998.97;;;-15.88;29.67
42887;BME280;29032;56.028;92.904;2024-02-21T11:21:33;101994.38;;;-16.05;30.36
42887;BME280;29032;56.028;92.904;2024-02-21T11:26:37;101997.16;;;-16.18;30.25
42887;BME280;29032;56.028;92.904;2024-02-21T11:31:42;102004.53;;;-16.33;30.47
42887;BME280;29032;56.028;92.904;2024-02-21T11:36:48;102000.16;;;-16.60;30.33
42887;BME280;29032;56.028;92.904;2024-02-21T11:42:03;102001.59;;;-16.62;30.94
42887;BME280;29032;56.028;92.904;2024-02-21T11:52:27;102008.63;;;-16.66;30.78
42887;BME280;29032;56.028;92.904;2024-02-21T11:57:29;102004.06;;;-16.66;31.00
42887;BME280;29032;56.028;92.904;2024-02-21T12:02:33;102012.38;;;-16.45;30.66
42887;BME280;29032;56.028;92.904;2024-02-21T12:07:37;102014.78;;;-16.35;30.49
42887;BME280;29032;56.028;92.904;2024-02-21T12:12:39;102010.91;;;-16.51;31.38
42887;BME280;29032;56.028;92.904;2024-02-21T12:17:44;102020.41;;;-16.45;31.91
42887;BME280;29032;56.028;92.904;2024-02-21T12:22:48;102020.63;;;-16.33;31.21
42887;BME280;29032;56.028;92.904;2024-02-21T12:27:51;102026.16;;;-16.29;30.75
42887;BME280;29032;56.028;92.904;2024-02-21T12:32:55;102013.41;;;-16.23;31.14
42887;BME280;29032;56.028;92.904;2024-02-21T12:37:57;102017.28;;;-16.38;31.35
42887;BME280;29032;56.028;92.904;2024-02-21T12:42:59;102015.19;;;-16.50;31.91
42887;BME280;29032;56.028;92.904;2024-02-21T12:48:03;102016.69;;;-16.35;31.81
42887;BME280;29032;56.028;92.904;2024-02-21T12:53:06;102016.41;;;-16.25;31.78
42887;BME280;29032;56.028;92.904;2024-02-21T12:58:08;102025.22;;;-16.16;31.92
42887;BME280;29032;56.028;92.904;2024-02-21T13:03:11;102002.84;;;-16.11;31.27
42887;BME280;29032;56.028;92.904;2024-02-21T13:08:14;102007.69;;;-16.31;31.84
42887;BME280;29032;56.028;92.904;2024-02-21T13:13:16;102011.31;;;-16.35;32.33
42887;BME280;29032;56.028;92.904;2024-02-21T13:18:19;101999.53;;;-16.26;32.87
42887;BME280;29032;56.028;92.904;2024-02-21T13:23:21;101985.84;;;-16.55;32.81
42887;BME280;29032;56.028;92.904;2024-02-21T13:28:24;101982.97;;;-16.67;32.98
42887;BME280;29032;56.028;92.904;2024-02-21T13:33:27;101976.25;;;-16.56;32.76
42887;BME280;29032;56.028;92.904;2024-02-21T13:38:30;101978.72;;;-16.60;32.54
42887;BME280;29032;56.028;92.904;2024-02-21T13:43:32;101967.75;;;-16.49;32.90
42887;BME280;29032;56.028;92.904;2024-02-21T13:48:36;101953.59;;;-16.41;32.72
42887;BME280;29032;56.028;92.904;2024-02-21T13:53:38;101962.91;;;-16.39;32.71
42887;BME280;29032;56.028;92.904;2024-02-21T13:58:40;101954.41;;;-16.41;32.48
42887;BME280;29032;56.028;92.904;2024-02-21T14:03:43;101943.22;;;-16.43;33.04
42887;BME280;29032;56.028;92.904;2024-02-21T14:08:46;101939.38;;;-16.50;33.04
42887;BME280;29032;56.028;92.904;2024-02-21T14:13:48;101925.22;;;-16.42;33.45
42887;BME280;29032;56.028;92.904;2024-02-21T14:18:51;101918.94;;;-16.20;33.62
42887;BME280;29032;56.028;92.904;2024-02-21T14:23:54;101919.63;;;-15.98;33.24
42887;BME280;29032;56.028;92.904;2024-02-21T14:28:56;101911.09;;;-15.74;32.62
42887;BME280;29032;56.028;92.904;2024-02-21T14:33:59;101905.41;;;-15.81;31.93
42887;BME280;29032;56.028;92.904;2024-02-21T14:39:01;101905.56;;;-16.20;32.55
42887;BME280;29032;56.028;92.904;2024-02-21T14:44:04;101893.94;;;-16.64;33.33
42887;BME280;29032;56.028;92.904;2024-02-21T14:49:08;101895.53;;;-16.63;33.15
42887;BME280;29032;56.028;92.904;2024-02-21T14:54:10;101907.31;;;-16.64;33.47
42887;BME280;29032;56.028;92.904;2024-02-21T14:59:12;101906.75;;;-16.44;32.84
42887;BME280;29032;56.028;92.904;2024-02-21T15:04:16;101907.28;;;-16.25;33.17
42887;BME280;29032;56.028;92.904;2024-02-21T15:09:18;101905.09;;;-16.14;32.50
42887;BME280;29032;56.028;92.904;2024-02-21T15:14:20;101897.66;;;-16.17;32.38
42887;BME280;29032;56.028;92.904;2024-02-21T15:19:24;101888.28;;;-16.63;32.27
42887;BME280;29032;56.028;92.904;2024-02-21T15:24:26;101890.38;;;-16.91;32.78
42887;BME280;29032;56.028;92.904;2024-02-21T15:29:28;101886.91;;;-16.91;34.20
42887;BME280;29032;56.028;92.904;2024-02-21T15:34:32;101886.06;;;-16.69;32.61
42887;BME280;29032;56.028;92.904;2024-02-21T15:39:34;101882.28;;;-16.68;33.31
42887;BME280;29032;56.028;92.904;2024-02-21T15:44:36;101873.03;;;-16.93;33.32
42887;BME280;29032;56.028;92.904;2024-02-21T15:49:40;101869.03;;;-17.13;33.64
42887;BME280;29032;56.028;92.904;2024-02-21T15:54:42;101860.41;;;-17.32;33.37
42887;BME280;29032;56.028;92.904;2024-02-21T15:59:45;101850.56;;;-17.46;33.79
42887;BME280;29032;56.028;92.904;2024-02-21T16:04:49;101854.00;;;-17.54;34.41
42887;BME280;29032;56.028;92.904;2024-02-21T16:09:52;101850.69;;;-17.51;34.80
42887;BME280;29032;56.028;92.904;2024-02-21T16:14:54;101840.50;;;-17.18;33.95
42887;BME280;29032;56.028;92.904;2024-02-21T16:19:58;101842.84;;;-16.85;33.97
42887;BME280;29032;56.028;92.904;2024-02-21T16:25:00;101835.44;;;-16.80;33.25
42887;BME280;29032;56.028;92.904;2024-02-21T16:30:02;101832.63;;;-17.14;33.06
42887;BME280;29032;56.028;92.904;2024-02-21T16:35:07;101824.25;;;-17.21;34.84
42887;BME280;29032;56.028;92.904;2024-02-21T16:45:30;101812.25;;;-17.32;33.54
42887;BME280;29032;56.028;92.904;2024-02-21T16:50:33;101802.94;;;-17.35;34.84
42887;BME280;29032;56.028;92.904;2024-02-21T16:55:35;101809.16;;;-17.17;33.78
42887;BME280;29032;56.028;92.904;2024-02-21T17:00:38;101807.50;;;-16.96;33.78
42887;BME280;29032;56.028;92.904;2024-02-21T17:05:41;101803.94;;;-16.83;33.74
42887;BME280;29032;56.028;92.904;2024-02-21T17:10:44;101801.13;;;-16.77;33.50
42887;BME280;29032;56.028;92.904;2024-02-21T17:15:46;101797.50;;;-16.73;33.55
42887;BME280;29032;56.028;92.904;2024-02-21T17:20:49;101795.31;;;-16.71;32.82
42887;BME280;29032;56.028;92.904;2024-02-21T17:25:52;101790.75;;;-16.70;32.79
42887;BME280;29032;56.028;92.904;2024-02-21T17:30:58;101791.81;;;-16.71;32.65
42887;BME280;29032;56.028;92.904;2024-02-21T17:36:01;101792.91;;;-16.72;32.35
42887;BME280;29032;56.028;92.904;2024-02-21T17:41:04;101792.44;;;-16.83;32.27
42887;BME280;29032;56.028;92.904;2024-02-21T17:46:06;101785.78;;;-16.86;32.61
42887;BME280;29032;56.028;92.904;2024-02-21T17:51:10;101784.22;;;-16.95;32.34
42887;BME280;29032;56.028;92.904;2024-02-21T17:56:13;101774.41;;;-17.09;33.76
42887;BME280;29032;56.028;92.904;2024-02-21T18:01:15;101774.25;;;-17.12;33.08
42887;BME280;29032;56.028;92.904;2024-02-21T18:06:19;101778.81;;;-17.13;32.56
42887;BME280;29032;56.028;92.904;2024-02-21T18:11:21;101778.63;;;-17.16;32.63
42887;BME280;29032;56.028;92.904;2024-02-21T18:16:23;101779.69;;;-17.26;33.38
42887;BME280;29032;56.028;92.904;2024-02-21T18:21:27;101777.03;;;-17.26;33.58
42887;BME280;29032;56.028;92.904;2024-02-21T18:26:29;101780.03;;;-17.27;32.65
42887;BME280;29032;56.028;92.904;2024-02-21T18:31:31;101782.03;;;-17.33;32.87
42887;BME280;29032;56.028;92.904;2024-02-21T18:36:35;101778.03;;;-17.44;32.92
42887;BME280;29032;56.028;92.904;2024-02-21T18:41:40;101781.38;;;-17.70;33.08
42887;BME280;29032;56.028;92.904;2024-02-21T18:46:43;101777.09;;;-18.02;33.07
42887;BME280;29032;56.028;92.904;2024-02-21T18:51:46;101772.41;;;-18.55;34.36
42887;BME280;29032;56.028;92.904;2024-02-21T18:56:49;101767.97;;;-18.95;34.80
42887;BME280;29032;56.028;92.904;2024-02-21T19:01:51;101758.38;;;-19.10;35.60
42887;BME280;29032;56.028;92.904;2024-02-21T19:06:55;101755.91;;;-19.07;34.93
42887;BME280;29032;56.028;92.904;2024-02-21T19:11:57;101762.81;;;-19.06;35.07
42887;BME280;29032;56.028;92.904;2024-02-21T19:16:59;101761.72;;;-19.05;35.00
42887;BME280;29032;56.028;92.904;2024-02-21T19:22:02;101763.03;;;-19.16;34.44
42887;BME280;29032;56.028;92.904;2024-02-21T19:27:05;101775.28;;;-19.15;34.86
42887;BME280;29032;56.028;92.904;2024-02-21T19:32:07;101775.28;;;-19.01;33.88
42887;BME280;29032;56.028;92.904;2024-02-21T19:37:10;101777.84;;;-18.96;33.53
42887;BME280;29032;56.028;92.904;2024-02-21T19:42:13;101775.97;;;-18.95;34.18
42887;BME280;29032;56.028;92.904;2024-02-21T19:47:15;101782.78;;;-18.89;34.10
42887;BME280;29032;56.028;92.904;2024-02-21T19:52:18;101789.00;;;-18.80;33.26
42887;BME280;29032;56.028;92.904;2024-02-21T19:57:20;101789.97;;;-18.76;33.49
42887;BME280;29032;56.028;92.904;2024-02-21T20:02:23;101781.38;;;-18.73;33.59
42887;BME280;29032;56.028;92.904;2024-02-21T20:07:26;101772.88;;;-18.75;33.22
42887;BME280;29032;56.028;92.904;2024-02-21T20:12:28;101778.41;;;-18.85;34.02
42887;BME280;29032;56.028;92.904;2024-02-21T20:17:31;101770.72;;;-19.00;33.21
42887;BME280;29032;56.028;92.904;2024-02-21T20:22:34;101769.94;;;-19.15;33.92
42887;BME280;29032;56.028;92.904;2024-02-21T20:27:37;101780.41;;;-19.32;34.17
42887;BME280;29032;56.028;92.904;2024-02-21T20:32:39;101777.16;;;-19.56;33.83
42887;BME280;29032;56.028;92.904;2024-02-21T20:37:42;101777.34;;;-19.53;33.62
42887;BME280;29032;56.028;92.904;2024-02-21T20:42:44;101772.13;;;-19.44;34.00
42887;BME280;29032;56.028;92.904;2024-02-21T20:47:47;101770.34;;;-19.35;33.62
42887;BME280;29032;56.028;92.904;2024-02-21T20:52:50;101764.63;;;-19.28;33.04
42887;BME280;29032;56.028;92.904;2024-02-21T20:57:52;101767.00;;;-19.27;34.04
42887;BME280;29032;56.028;92.904;2024-02-21T21:02:55;101767.22;;;-19.23;33.40
42887;BME280;29032;56.028;92.904;2024-02-21T21:07:58;101771.75;;;-19.24;33.44
42887;BME280;29032;56.028;92.904;2024-02-21T21:13:02;101778.66;;;-19.23;32.78
42887;BME280;29032;56.028;92.904;2024-02-21T21:18:05;101774.91;;;-19.22;33.19
42887;BME280;29032;56.028;92.904;2024-02-21T21:23:08;101775.47;;;-19.25;32.75
42887;BME280;29032;56.028;92.904;2024-02-21T21:28:10;101781.13;;;-19.26;32.74
42887;BME280;29032;56.028;92.904;2024-02-21T21:33:13;101769.19;;;-19.29;33.41
42887;BME280;29032;56.028;92.904;2024-02-21T21:38:16;101778.44;;;-19.26;33.30
42887;BME280;29032;56.028;92.904;2024-02-21T21:43:19;101789.13;;;-19.26;33.44
42887;BME280;29032;56.028;92.904;2024-02-21T21:48:23;101786.97;;;-19.24;33.28
42887;BME280;29032;56.028;92.904;2024-02-21T21:53:27;101775.22;;;-19.23;32.30
42887;BME280;29032;56.028;92.904;2024-02-21T21:58:29;101782.44;;;-19.24;33.00
42887;BME280;29032;56.028;92.904;2024-02-21T22:03:31;101791.50;;;-19.25;32.38
42887;BME280;29032;56.028;92.904;2024-02-21T22:08:35;101797.50;;;-19.33;31.38
42887;BME280;29032;56.028;92.904;2024-02-21T22:13:37;101792.25;;;-19.66;31.52
42887;BME280;29032;56.028;92.904;2024-02-21T22:18:40;101794.28;;;-20.09;31.71
42887;BME280;29032;56.028;92.904;2024-02-21T22:23:44;101786.88;;;-20.68;32.23
42887;BME280;29032;56.028;92.904;2024-02-21T22:28:46;101794.84;;;-21.35;32.35
42887;BME280;29032;56.028;92.904;2024-02-21T22:33:49;101804.47;;;-21.97;32.50
42887;BME280;29032;56.028;92.904;2024-02-21T22:38:52;101814.13;;;-22.56;32.64
42887;BME280;29032;56.028;92.904;2024-02-21T22:43:54;101814.38;;;-23.02;33.10
42887;BME280;29032;56.028;92.904;2024-02-21T22:48:57;101821.84;;;-23.29;33.23
42887;BME280;29032;56.028;92.904;2024-02-21T22:54:00;101825.09;;;-23.53;33.70
42887;BME280;29032;56.028;92.904;2024-02-21T22:59:02;101826.09;;;-23.23;33.87
42887;BME280;29032;56.028;92.904;2024-02-21T23:04:05;101820.69;;;-22.93;33.34
42887;BME280;29032;56.028;92.904;2024-02-21T23:09:08;101824.69;;;-23.00;33.03
42887;BME280;29032;56.028;92.904;2024-02-21T23:14:11;101834.03;;;-23.18;33.60
42887;BME280;29032;56.028;92.904;2024-02-21T23:19:13;101830.31;;;-23.27;33.76
42887;BME280;29032;56.028;92.904;2024-02-21T23:24:16;101834.81;;;-23.28;33.83
42887;BME280;29032;56.028;92.904;2024-02-21T23:29:18;101835.38;;;-23.41;32.70
42887;BME280;29032;56.028;92.904;2024-02-21T23:34:20;101838.56;;;-23.49;33.33
42887;BME280;29032;56.028;92.904;2024-02-21T23:39:24;101846.78;;;-23.30;33.35
42887;BME280;29032;56.028;92.904;2024-02-21T23:44:26;101842.53;;;-23.31;33.56
42887;BME280;29032;56.028;92.904;2024-02-21T23:49:28;101851.50;;;-23.22;33.64
42887;BME280;29032;56.028;92.904;2024-02-21T23:54:50;101846.94;;;-22.91;33.35
42887;BME280;29032;56.028;92.904;2024-02-21T23:59:52;101855.03;;;-22.62;32.81
